Bookmark and Share
Track history (hours):
 

Escambia

More information available from US FCC via Universal Licensing System and Coast Guard Vessel Documentation Center.

Last reported at 2012-May-22 11:33 UTC. Time now 2014-Apr-19 00:12 UTC.
Position N 27°52' W 082°27'.
Warning: this ship's position is years out of date!

NotesDate/timePositionNaut miles runAvg speedWind from/ knotsBaromVisibWave heightAir tempDewpointWater temp
2012-May-22 11:33N 27°52' W 082°27'3 2.8
2012-May-22 10:35N 27°51' W 082°24'2 1.9
2012-May-22 09:34N 27°51' W 082°26'5 4.5
2012-May-22 08:33N 27°55' W 082°27'0 0.0
2012-May-22 07:33N 27°55' W 082°27'0 0.0
2012-May-22 06:34N 27°55' W 082°27'1 0.6
2012-May-22 05:33N 27°56' W 082°27'0 0.1
2012-May-22 04:36N 27°56' W 082°27'1 0.6
2012-May-22 03:33N 27°55' W 082°27'0 0.0
2012-May-22 02:34N 27°55' W 082°27'0 0.0
2012-May-22 01:33N 27°55' W 082°27'0 0.0
2012-May-22 00:33N 27°55' W 082°27'0 0.0
2012-May-21 23:33N 27°55' W 082°27'1 1.5
2012-May-21 22:34N 27°57' W 082°27'1 1.4
2012-May-21 21:34N 27°55' W 082°27'0 0.3
2012-May-21 20:33N 27°55' W 082°27'2 2.2
2012-May-21 19:33N 27°53' W 082°26'2 2.4
2012-May-21 18:34N 27°55' W 082°27'0 0.0
2012-May-21 17:33N 27°55' W 082°27'0 0.0
2012-May-21 16:33N 27°55' W 082°27'0 0.0
2012-May-21 15:34N 27°55' W 082°27'0 0.0
2012-May-21 14:33N 27°55' W 082°27'0 0.0
2012-May-21 13:33N 27°55' W 082°27'0 0.0
2012-May-21 12:33N 27°55' W 082°27'0 0.0
2012-May-21 11:33N 27°55' W 082°27'0 0.0
2012-May-21 10:35N 27°55' W 082°27'1 0.9
2012-May-21 09:33N 27°56' W 082°26'2 2.4
2012-May-21 08:33N 27°53' W 082°26'2 2.0
2012-May-21 07:33N 27°55' W 082°27'0 0.0
2012-May-21 06:33N 27°55' W 082°27'0 0.3
2012-May-21 05:33N 27°55' W 082°27'1 0.6
2012-May-21 04:36N 27°55' W 082°26'3 2.7
2012-May-21 03:34N 27°52' W 082°27'3 3.4
2012-May-21 02:33N 27°48' W 082°27'10 9.8
2012-May-21 01:34N 27°41' W 082°35'17 5.7
2012-May-20 22:33N 27°57' W 082°27'1 0.7
2012-May-20 21:33N 27°56' W 082°27'1 0.8
2012-May-20 20:34N 27°55' W 082°27'0 0.0
2012-May-20 19:33N 27°55' W 082°27'0 0.0
2012-May-20 18:34N 27°55' W 082°27'0 0.0
2012-May-20 17:34N 27°55' W 082°27'1 0.7
2012-May-20 16:33N 27°56' W 082°27'1 0.5
2012-May-20 15:33N 27°57' W 082°27'1 1.2
2012-May-20 14:33N 27°55' W 082°27'0 0.0
2012-May-20 13:33N 27°55' W 082°27'0 0.0
2012-May-20 12:33N 27°55' W 082°27'0 0.0
2012-May-20 11:34N 27°55' W 082°27'0 0.0
2012-May-20 10:35N 27°55' W 082°27'0 0.0
2012-May-20 09:33N 27°55' W 082°27'0 0.0
2012-May-20 08:34N 27°55' W 082°27'0 0.0
2012-May-20 07:33N 27°55' W 082°27'0 0.0
2012-May-20 06:34N 27°55' W 082°27'0 0.0
2012-May-20 05:34N 27°55' W 082°27'0 0.0
2012-May-20 04:36N 27°55' W 082°27'0 0.3
2012-May-20 03:33N 27°55' W 082°27'0 0.3
2012-May-20 02:33N 27°55' W 082°27'0 0.0
2012-May-20 01:33N 27°55' W 082°27'0 0.0
2012-May-20 00:33N 27°55' W 082°27'0 0.0
2012-May-19 23:33N 27°55' W 082°27'0 0.0
2012-May-19 22:33N 27°55' W 082°27'0 0.0
2012-May-19 21:34N 27°55' W 082°27'0 0.0
2012-May-19 20:33N 27°55' W 082°27'0 0.0
2012-May-19 19:34N 27°55' W 082°27'0 0.0
2012-May-19 18:34N 27°55' W 082°27'0 0.0
2012-May-19 17:33N 27°55' W 082°27'0 0.0
2012-May-19 16:33N 27°55' W 082°27'0 0.0
2012-May-19 15:33N 27°55' W 082°27'2 1.7
2012-May-19 14:33N 27°57' W 082°27'3 3.2
2012-May-19 13:33N 27°54' W 082°26'2 1.6
2012-May-19 12:34N 27°55' W 082°27'0 0.0
2012-May-19 11:33N 27°55' W 082°27'0 0.0
2012-May-19 10:36N 27°55' W 082°27'0 0.0
2012-May-19 09:33N 27°55' W 082°27'0 0.0
2012-May-19 08:33N 27°55' W 082°27'0 0.0
2012-May-19 07:34N 27°55' W 082°27'0 0.0
2012-May-19 06:33N 27°55' W 082°27'0 0.0
2012-May-19 05:33N 27°55' W 082°27'0 0.0
2012-May-19 04:37N 27°55' W 082°27'0 0.0
2012-May-19 03:34N 27°55' W 082°27'0 0.0
2012-May-19 02:33N 27°55' W 082°27'0 0.0
2012-May-19 01:33N 27°55' W 082°27'0 0.0
2012-May-19 00:34N 27°55' W 082°27'0 0.0
2012-May-18 23:34N 27°55' W 082°27'0 0.0
2012-May-18 22:33N 27°55' W 082°27'0 0.0
2012-May-18 21:33N 27°55' W 082°27'0 0.0
2012-May-18 20:34N 27°55' W 082°27'0 0.0
2012-May-18 19:33N 27°55' W 082°27'0 0.0
2012-May-18 18:33N 27°55' W 082°27'0 0.0
2012-May-18 17:33N 27°55' W 082°27'0 0.0
2012-May-18 16:33N 27°55' W 082°27'0 0.0
2012-May-18 15:33N 27°55' W 082°27'1 1.5
2012-May-18 14:33N 27°57' W 082°27'3 2.6
2012-May-18 13:33N 27°54' W 082°26'1 1.2
2012-May-18 12:33N 27°55' W 082°27'0 0.0
2012-May-18 11:33N 27°55' W 082°27'0 0.4
2012-May-18 10:36N 27°55' W 082°27'2 1.8
2012-May-18 09:33N 27°57' W 082°27'2 1.5
2012-May-18 08:33N 27°55' W 082°27'0 0.0
2012-May-18 07:33N 27°55' W 082°27'0 0.0
2012-May-18 06:33N 27°55' W 082°27'0 0.0
2012-May-18 05:33N 27°55' W 082°27'0 0.0
2012-May-18 04:36N 27°55' W 082°27'0 0.0
2012-May-18 03:33N 27°55' W 082°27'0 0.0
2012-May-18 02:33N 27°55' W 082°27'0 0.0
2012-May-18 01:33N 27°55' W 082°27'0 0.0
2012-May-18 00:33N 27°55' W 082°27'0 0.0
2012-May-17 23:33N 27°55' W 082°27'1 1.1
2012-May-17 22:33N 27°56' W 082°27'1 1.1
2012-May-17 21:33N 27°55' W 082°27'0 0.0
2012-May-17 20:33N 27°55' W 082°27'0 0.0
2012-May-17 19:33N 27°55' W 082°27'0 0.0
2012-May-17 18:33N 27°55' W 082°27'0 0.0
2012-May-17 17:33N 27°55' W 082°27'0 0.0
2012-May-17 16:33N 27°55' W 082°27'0 0.0
2012-May-17 15:33N 27°55' W 082°27'0 0.0
2012-May-17 14:33N 27°55' W 082°27'0 0.0
2012-May-17 13:33N 27°55' W 082°27'0 0.0
2012-May-17 12:33N 27°55' W 082°27'0 0.0
2012-May-17 11:33N 27°55' W 082°27'0 0.0
2012-May-17 10:35N 27°55' W 082°27'0 0.0
2012-May-17 09:33N 27°55' W 082°27'0 0.0
2012-May-17 08:33N 27°55' W 082°27'2 2.0
2012-May-17 07:33N 27°54' W 082°25'2 2.0
2012-May-17 06:33N 27°55' W 082°27'0 0.0
2012-May-17 05:33N 27°55' W 082°27'0 0.0
2012-May-17 04:36N 27°55' W 082°27'0 0.0
2012-May-17 03:33N 27°55' W 082°27'0 0.0
2012-May-17 02:33N 27°55' W 082°27'0 0.0
2012-May-17 01:33N 27°55' W 082°27'0 0.0
2012-May-17 00:33N 27°55' W 082°27'0 0.0
2012-May-16 23:33N 27°55' W 082°27'0 0.0
2012-May-16 22:33N 27°55' W 082°27'0 0.0
2012-May-16 21:33N 27°55' W 082°27'0 0.0
2012-May-16 20:33N 27°55' W 082°27'1 0.7
2012-May-16 19:33N 27°55' W 082°26'1 0.8
2012-May-16 18:33N 27°54' W 082°26'2 1.6
2012-May-16 17:33N 27°55' W 082°27'0 0.0
2012-May-16 16:33N 27°55' W 082°27'0 0.0
2012-May-16 15:33N 27°55' W 082°27'0 0.0
2012-May-16 14:33N 27°55' W 082°27'0 0.0
2012-May-16 13:33N 27°55' W 082°27'0 0.1
2012-May-16 12:33N 27°55' W 082°27'0 0.1
2012-May-16 11:33N 27°55' W 082°27'0 0.0
2012-May-16 10:35N 27°55' W 082°27'0 0.0
2012-May-16 09:33N 27°55' W 082°27'0 0.0
2012-May-16 08:33N 27°55' W 082°27'0 0.0
2012-May-16 07:33N 27°55' W 082°27'0 0.0
2012-May-16 06:33N 27°55' W 082°27'0 0.0
2012-May-16 05:33N 27°55' W 082°27'0 0.0
2012-May-16 04:36N 27°55' W 082°27'0 0.0
2012-May-16 03:33N 27°55' W 082°27'0 0.0
2012-May-16 02:33N 27°55' W 082°27'0 0.0
2012-May-16 01:33N 27°55' W 082°27'0 0.0
2012-May-16 00:33N 27°55' W 082°27'0 0.0
2012-May-15 23:33N 27°55' W 082°27'0 0.0
2012-May-15 22:33N 27°55' W 082°27'0 0.0
2012-May-15 21:33N 27°55' W 082°27'0 0.3
2012-May-15 20:33N 27°55' W 082°27'0 0.3
2012-May-15 19:33N 27°55' W 082°27'0 0.0
2012-May-15 18:33N 27°55' W 082°27'5 5.2
2012-May-15 17:33N 27°50' W 082°27'6 6.3
2012-May-15 16:33N 27°51' W 082°34'1 1.2
2012-May-15 15:27N 27°52' W 082°33'0 0.0
2012-May-15 14:33N 27°52' W 082°33'0 0.0
2012-May-15 13:33N 27°52' W 082°33'0 0.0
2012-May-15 12:33N 27°52' W 082°33'0 0.0
2012-May-15 11:33N 27°52' W 082°33'0 0.0
2012-May-15 10:36N 27°52' W 082°33'0 0.0
2012-May-15 09:33N 27°52' W 082°33'0 0.0
2012-May-15 08:33N 27°52' W 082°33'0 0.0
2012-May-15 07:33N 27°52' W 082°33'0 0.0
2012-May-15 06:33N 27°52' W 082°33'0 0.0
2012-May-15 05:33N 27°52' W 082°33'0 0.0
2012-May-15 04:36N 27°52' W 082°33'1 0.9
2012-May-15 03:33N 27°51' W 082°34'5 5.2
2012-May-15 02:33N 27°48' W 082°29'8 7.5
2012-May-15 01:33N 27°55' W 082°27'2 1.6
2012-May-15 00:33N 27°57' W 082°27'1 1.5
2012-May-14 23:33N 27°55' W 082°27'0 0.0
2012-May-14 22:33N 27°55' W 082°27'0 0.0
2012-May-14 21:33N 27°55' W 082°27'0 0.0
2012-May-14 20:33N 27°55' W 082°27'1 0.7
2012-May-14 19:33N 27°55' W 082°27'1 0.7
2012-May-14 18:33N 27°55' W 082°27'0 0.0
2012-May-14 17:33N 27°55' W 082°27'0 0.0
2012-May-14 16:33N 27°55' W 082°27'0 0.0
2012-May-14 15:33N 27°55' W 082°27'0 0.0
2012-May-14 14:33N 27°55' W 082°27'0 0.0
2012-May-14 13:33N 27°55' W 082°27'0 0.0
2012-May-14 12:33N 27°55' W 082°27'0 0.0
2012-May-14 11:34N 27°55' W 082°27'0 0.0
2012-May-14 10:36N 27°55' W 082°27'0 0.0
2012-May-14 09:34N 27°55' W 082°27'0 0.0
2012-May-14 08:33N 27°55' W 082°27'0 0.0
2012-May-14 07:33N 27°55' W 082°27'0 0.0
2012-May-14 06:33N 27°55' W 082°27'0 0.0
2012-May-14 06:20N 27°55' W 082°27'0 0.0
2012-May-14 04:36N 27°55' W 082°27'0 0.0
2012-May-14 03:33N 27°55' W 082°27'2 1.5
2012-May-14 02:33N 27°57' W 082°27'2 1.5
2012-May-14 01:33N 27°55' W 082°27'0 0.0
2012-May-14 00:33N 27°55' W 082°27'0 0.0
2012-May-13 23:33N 27°55' W 082°27'0 0.0
2012-May-13 22:33N 27°55' W 082°27'0 0.0
2012-May-13 21:33N 27°55' W 082°27'0 0.0
2012-May-13 19:33N 27°55' W 082°27'0 0.2
2012-May-13 17:33N 27°55' W 082°27'6 5.8
2012-May-13 16:33N 27°49' W 082°27'6 6.2
2012-May-13 15:33N 27°51' W 082°34'1 0.6
2012-May-13 14:33N 27°52' W 082°33'4 4.1
2012-May-13 13:33N 27°48' W 082°34'8 8.4
2012-May-13 12:33N 27°52' W 082°27'3 2.7
2012-May-13 11:33N 27°55' W 082°27'0 0.2
2012-May-13 10:35N 27°55' W 082°27'0 0.0
2012-May-13 09:33N 27°55' W 082°27'0 0.0
2012-May-13 08:33N 27°55' W 082°27'0 0.0
2012-May-13 07:33N 27°55' W 082°27'0 0.0
2012-May-13 06:33N 27°55' W 082°27'0 0.0
2012-May-13 05:33N 27°55' W 082°27'0 0.0
2012-May-13 04:39N 27°55' W 082°27'0 0.0
2012-May-13 03:33N 27°55' W 082°27'0 0.0
2012-May-13 02:33N 27°55' W 082°27'0 0.0
2012-May-13 01:33N 27°55' W 082°27'0 0.0
2012-May-13 00:33N 27°55' W 082°27'0 0.0
2012-May-12 23:33N 27°55' W 082°27'0 0.0
2012-May-12 22:33N 27°55' W 082°27'0 0.0
2012-May-12 21:33N 27°55' W 082°27'0 0.0
2012-May-12 20:33N 27°55' W 082°27'0 0.0
2012-May-12 19:33N 27°55' W 082°27'0 0.0
2012-May-12 18:33N 27°55' W 082°27'0 0.0
2012-May-12 17:33N 27°55' W 082°27'0 0.0
2012-May-12 16:33N 27°55' W 082°27'0 0.0
2012-May-12 15:33N 27°55' W 082°27'1 0.8
2012-May-12 14:33N 27°56' W 082°27'3 3.3
2012-May-12 13:33N 27°53' W 082°26'2 1.7
2012-May-12 12:33N 27°54' W 082°26'0 0.0
2012-May-12 11:33N 27°54' W 082°26'  

Dump ship's entire track history

sailing weather and tide predictions

Escambia — WCY3871 — position and weather